»·PEaware :: SKY132 KABQ-KSKX

SKY132 :: KABQ-KSKX

FLIGHT INFORMATION

Flight Status: Arrived
Operator:
Sky High Charters
More flights by this operator :: More flights under this callsign
Pilot: Peter S. (23284)
Aircraft: BEECH AIRCRAFT BARON
(BE58)
More flights by this aircraft type
Origin: KABQ Albuquerque Intl Sunport
United States
Destination: KSKX Taos Regl
United States
More flights between these airports :: More routes between these airports
Route: +ABQ3 ABQ V263 SAF V83 DIXAN
File this flight plan on PilotEdge
Remarks: +CW / SKY-2 leg 1
Altitude:
(Current/Filed)
11,000ft
Speed:
(Current/Filed)
150kts
Departed: 14-Mar-19 07:56 PM
Arrived: 14-Mar-19 08:43 PM
Distance/Time
Traveled:
97nm/0:47
Distance/Time
To Go:
Arrived

Flight Plot

Page will automatically refresh every two minutes.

Flight plan parsing failed; only flown route is shown


Map Options




Map Legend


Flown Route
Filed Route
Departure Airport
Arrival Airport
Navaid (VOR, NDB)
Fix

Horizontal Profiles

Position Reports

Time Latitude Longitude Heading Altitude Ground
Speed
14-Mar-19 19:36 35.034697 -106.619728 46 5355ft 0kts
14-Mar-19 19:37 35.034697 -106.619728 46 5355ft 0kts
14-Mar-19 19:38 35.034697 -106.619728 46 5355ft 0kts
14-Mar-19 19:39 35.034697 -106.619728 46 5355ft 0kts
14-Mar-19 19:40 35.034697 -106.619728 46 5355ft 0kts
14-Mar-19 19:41 35.034697 -106.619728 46 5355ft 0kts
14-Mar-19 19:42 35.034697 -106.619728 46 5355ft 0kts
14-Mar-19 19:43 35.034697 -106.619728 46 5355ft 0kts
14-Mar-19 19:44 35.034697 -106.619728 46 5355ft 0kts
14-Mar-19 19:45 35.034697 -106.619728 46 5355ft 0kts
14-Mar-19 19:46 35.034697 -106.619728 46 5355ft 0kts
14-Mar-19 19:47 35.034697 -106.619728 46 5355ft 0kts
14-Mar-19 19:48 35.034697 -106.619728 46 5355ft 0kts
14-Mar-19 19:49 35.034768 -106.619635 47 5355ft 4kts
14-Mar-19 19:50 35.035995 -106.616169 44 5355ft 19kts
14-Mar-19 19:51 35.039240 -106.615972 307 5355ft 16kts
14-Mar-19 19:52 35.042526 -106.621095 309 5355ft 20kts
14-Mar-19 19:53 35.043117 -106.621428 358 5355ft 0kts
14-Mar-19 19:54 35.044356 -106.621104 81 5355ft 4kts
14-Mar-19 19:55 35.043973 -106.590810 91 5680ft 120kts
14-Mar-19 19:56 35.066645 -106.583137 318 6710ft 119kts
14-Mar-19 19:57 35.092237 -106.610462 318 7670ft 120kts
14-Mar-19 19:58 35.118704 -106.637175 320 8556ft 122kts
14-Mar-19 19:59 35.145882 -106.664761 318 9354ft 127kts
14-Mar-19 20:00 35.173096 -106.692651 318 9998ft 129kts
14-Mar-19 20:01 35.200421 -106.720382 321 10550ft 127kts
14-Mar-19 20:02 35.232518 -106.733843 9 10969ft 133kts
14-Mar-19 20:03 35.272166 -106.719386 20 10904ft 160kts
14-Mar-19 20:04 35.313670 -106.699710 21 10990ft 159kts
14-Mar-19 20:05 35.355471 -106.680081 15 10984ft 163kts
14-Mar-19 20:06 35.398805 -106.664472 17 11041ft 161kts
14-Mar-19 20:07 35.442160 -106.647622 18 10999ft 164kts
14-Mar-19 20:08 35.485383 -106.628680 17 10994ft 162kts
14-Mar-19 20:09 35.520665 -106.600233 82 10956ft 164kts
14-Mar-19 20:10 35.524696 -106.544400 91 10952ft 163kts
14-Mar-19 20:11 35.526270 -106.488991 84 10982ft 162kts
14-Mar-19 20:12 35.529011 -106.433266 87 10994ft 162kts
14-Mar-19 20:13 35.530523 -106.377626 88 10987ft 163kts
14-Mar-19 20:14 35.533729 -106.321881 85 11009ft 163kts
14-Mar-19 20:15 35.535207 -106.266136 88 11015ft 163kts
14-Mar-19 20:16 35.535265 -106.210204 90 11028ft 163kts
14-Mar-19 20:17 35.536234 -106.154487 89 11038ft 163kts
14-Mar-19 20:18 35.539276 -106.098845 80 11047ft 163kts
14-Mar-19 20:19 35.570954 -106.066607 14 11005ft 163kts
14-Mar-19 20:20 35.615404 -106.054867 5 11018ft 163kts
14-Mar-19 20:21 35.660648 -106.049594 7 11030ft 163kts
14-Mar-19 20:22 35.705698 -106.042834 8 11042ft 163kts
14-Mar-19 20:23 35.750565 -106.035464 5 11059ft 163kts
14-Mar-19 20:24 35.795623 -106.028189 7 11071ft 163kts
14-Mar-19 20:25 35.840831 -106.022608 4 11040ft 166kts
14-Mar-19 20:26 35.886519 -106.018093 6 11054ft 164kts
14-Mar-19 20:27 35.931714 -106.009101 10 11043ft 164kts
14-Mar-19 20:28 35.976827 -106.000570 5 11036ft 164kts
14-Mar-19 20:29 36.022432 -105.995323 8 11030ft 164kts
14-Mar-19 20:30 36.067696 -105.987111 6 11026ft 164kts
14-Mar-19 20:31 36.112671 -105.979901 8 11023ft 164kts
14-Mar-19 20:32 36.157976 -105.969979 9 11019ft 164kts
14-Mar-19 20:33 36.203615 -105.961342 5 11016ft 164kts
14-Mar-19 20:34 36.249710 -105.959965 1 11014ft 164kts
14-Mar-19 20:35 36.292109 -105.942904 39 10709ft 162kts
14-Mar-19 20:36 36.326067 -105.905955 44 9883ft 164kts
14-Mar-19 20:37 36.352850 -105.863495 57 9389ft 154kts
14-Mar-19 20:38 36.376116 -105.818671 59 8975ft 149kts
14-Mar-19 20:39 36.399815 -105.776545 53 8786ft 155kts
14-Mar-19 20:40 36.424192 -105.733008 56 7960ft 148kts
14-Mar-19 20:41 36.446798 -105.693544 54 7379ft 128kts
14-Mar-19 20:42 36.458787 -105.671321 58 7091ft 26kts
14-Mar-19 20:43 36.459678 -105.671798 233 7091ft 16kts
14-Mar-19 20:44 36.459541 -105.672039 235 7091ft 0kts
14-Mar-19 20:45 36.459541 -105.672039 235 7091ft 0kts
14-Mar-19 20:46 36.459541 -105.672039 235 7091ft 0kts
14-Mar-19 20:47 36.459541 -105.672039 235 7091ft 0kts
14-Mar-19 20:48 36.459541 -105.672039 235 7091ft 0kts
14-Mar-19 20:49 36.461322 -105.668875 232 7091ft 0kts
14-Mar-19 20:50 36.461322 -105.668875 232 7091ft 0kts
14-Mar-19 20:51 36.461322 -105.668875 232 7091ft 0kts

Navigation Log

Ident Type
Flight plan parsing failed, navigation log unavailable